createdAt,value
2018-12-25T00:00:43.191Z,3.50
2018-12-25T00:03:12.778Z,3.50
2018-12-25T00:05:42.205Z,3.50
2018-12-25T00:08:11.906Z,3.40
2018-12-25T00:10:41.590Z,3.40
2018-12-25T00:13:11.081Z,3.40
2018-12-25T00:15:40.506Z,3.30
2018-12-25T00:18:11.364Z,3.20
2018-12-25T00:20:40.935Z,3.20
2018-12-25T00:23:10.808Z,3.20
2018-12-25T00:25:40.194Z,3.20
2018-12-25T00:28:09.662Z,3.10
2018-12-25T00:30:39.898Z,3.20
2018-12-25T00:33:09.330Z,3.10
2018-12-25T00:35:38.839Z,3.10
2018-12-25T00:38:08.485Z,3.10
2018-12-25T00:40:39.088Z,3.00
2018-12-25T00:43:08.544Z,3.00
2018-12-25T00:45:38.451Z,3.00
2018-12-25T00:48:07.998Z,3.10
2018-12-25T00:50:37.462Z,3.10
2018-12-25T00:53:06.939Z,3.10
2018-12-25T00:55:36.373Z,3.10
2018-12-25T00:58:05.769Z,3.10
2018-12-25T01:00:35.218Z,3.10
2018-12-25T01:03:04.668Z,3.00
2018-12-25T01:05:34.134Z,3.00
2018-12-25T01:08:03.580Z,2.90
2018-12-25T01:10:33.183Z,3.00
2018-12-25T01:13:02.990Z,2.90
2018-12-25T01:15:32.480Z,2.90
2018-12-25T01:18:01.956Z,2.90
2018-12-25T01:20:31.386Z,2.80
2018-12-25T01:23:00.953Z,2.80
2018-12-25T01:25:30.476Z,2.80
2018-12-25T01:28:00.000Z,2.80
2018-12-25T01:30:29.374Z,2.70
2018-12-25T01:32:58.938Z,2.70
2018-12-25T01:35:28.782Z,2.70
2018-12-25T01:37:58.551Z,2.70
2018-12-25T01:40:28.192Z,2.60
2018-12-25T01:42:57.624Z,2.70
2018-12-25T01:45:26.996Z,2.70
2018-12-25T01:47:56.484Z,2.60
2018-12-25T01:50:26.048Z,2.70
2018-12-25T01:52:55.443Z,2.60
2018-12-25T01:55:25.800Z,2.60
2018-12-25T01:57:55.293Z,2.60
2018-12-25T02:00:25.128Z,2.60
2018-12-25T02:02:54.566Z,2.60
2018-12-25T02:05:24.155Z,2.60
2018-12-25T02:07:53.638Z,2.60
2018-12-25T02:10:23.119Z,2.60
2018-12-25T02:12:52.585Z,2.60
2018-12-25T02:15:22.048Z,2.60
2018-12-25T02:18:10.707Z,2.60
2018-12-25T02:20:59.170Z,2.50
2018-12-25T02:23:38.428Z,2.60
2018-12-25T02:26:26.948Z,2.60
2018-12-25T02:29:15.442Z,2.60
2018-12-25T02:34:58.751Z,2.60
2018-12-25T02:37:47.767Z,2.60
2018-12-25T02:40:36.209Z,2.50
2018-12-25T02:43:24.739Z,2.50
2018-12-25T02:46:13.253Z,2.30
2018-12-25T02:49:01.773Z,2.40
2018-12-25T02:51:50.260Z,2.40
2018-12-25T02:54:39.228Z,2.40
2018-12-25T02:57:27.795Z,2.40
2018-12-25T03:00:16.301Z,2.30
2018-12-25T03:03:04.821Z,2.30
2018-12-25T03:05:53.658Z,2.40
2018-12-25T03:08:42.120Z,2.40
2018-12-25T03:17:32.577Z,2.30
2018-12-25T03:20:40.025Z,2.30
2018-12-25T03:23:21.597Z,2.30
2018-12-25T03:26:02.531Z,2.20
2018-12-25T03:28:43.962Z,2.20
2018-12-25T03:31:25.183Z,2.30
2018-12-25T03:34:06.673Z,2.20
2018-12-25T03:36:48.140Z,2.20
2018-12-25T03:39:27.665Z,2.30
2018-12-25T03:42:16.170Z,2.30
2018-12-25T03:45:05.092Z,2.30
2018-12-25T03:56:36.274Z,2.30
2018-12-25T03:59:24.912Z,2.30
2018-12-25T04:02:13.430Z,2.40
2018-12-25T04:11:05.370Z,2.20
2018-12-25T04:19:42.805Z,2.60
2018-12-25T04:22:31.317Z,2.60
2018-12-25T04:25:00.759Z,2.70
2018-12-25T04:27:49.243Z,2.70
2018-12-25T04:30:37.751Z,2.80
2018-12-25T04:33:26.341Z,2.70
2018-12-25T04:39:43.348Z,2.70
2018-12-25T04:42:32.315Z,2.80
2018-12-25T04:45:20.819Z,2.80
2018-12-25T04:48:09.368Z,2.90
2018-12-25T04:50:57.850Z,2.80
2018-12-25T04:56:40.035Z,2.80
2018-12-25T05:02:24.382Z,2.80
2018-12-25T05:05:13.143Z,2.70
2018-12-25T05:08:01.693Z,2.70
2018-12-25T05:10:50.222Z,2.80
2018-12-25T05:13:39.172Z,2.80
2018-12-25T05:16:27.656Z,2.80
2018-12-25T05:19:16.793Z,2.80
2018-12-25T05:22:05.295Z,2.90
2018-12-25T05:24:46.032Z,2.90
2018-12-25T05:27:26.968Z,2.90
2018-12-25T05:32:46.745Z,2.80
2018-12-25T05:35:26.193Z,2.80
2018-12-25T05:38:14.710Z,2.80
2018-12-25T05:41:03.233Z,2.80
2018-12-25T05:43:51.765Z,2.80
2018-12-25T05:52:43.479Z,2.90
2018-12-25T05:55:31.993Z,2.90
2018-12-25T05:58:20.526Z,2.90
2018-12-25T06:01:09.496Z,2.80
2018-12-25T06:07:04.523Z,2.80
2018-12-25T06:09:46.117Z,2.80
2018-12-25T06:12:26.953Z,2.70
2018-12-25T06:15:07.618Z,2.70
2018-12-25T06:17:48.419Z,2.70
2018-12-25T06:20:29.408Z,2.70
2018-12-25T06:23:08.791Z,2.70
2018-12-25T06:25:49.468Z,2.70
2018-12-25T06:28:28.925Z,2.70
2018-12-25T06:37:27.278Z,2.80
2018-12-25T06:40:15.767Z,2.90
2018-12-25T06:43:04.329Z,2.90
2018-12-25T06:45:52.883Z,2.90
2018-12-25T06:48:41.580Z,2.90
2018-12-25T06:51:30.060Z,2.90
2018-12-25T06:54:18.935Z,3.00
2018-12-25T06:57:07.386Z,2.90
2018-12-25T06:59:36.948Z,2.90
2018-12-25T07:02:08.349Z,2.90
2018-12-25T07:04:38.181Z,2.90
2018-12-25T07:07:07.665Z,2.90
2018-12-25T07:09:37.211Z,2.90
2018-12-25T07:12:06.772Z,2.90
2018-12-25T07:14:36.304Z,2.90
2018-12-25T07:17:24.734Z,2.90
2018-12-25T07:20:13.292Z,2.90
2018-12-25T07:23:01.860Z,2.90
2018-12-25T07:25:50.446Z,2.80
2018-12-25T07:31:48.645Z,2.80
2018-12-25T07:34:37.158Z,2.80
2018-12-25T07:37:25.702Z,2.80
2018-12-25T07:43:21.929Z,3.00
2018-12-25T07:46:10.424Z,2.80
2018-12-25T07:48:59.156Z,2.80
2018-12-25T07:54:56.704Z,2.90
2018-12-25T07:57:45.248Z,3.10
2018-12-25T08:00:33.826Z,3.00
2018-12-25T08:03:22.614Z,3.00
2018-12-25T08:06:11.164Z,3.00
2018-12-25T08:08:59.696Z,3.10
2018-12-25T08:11:48.833Z,3.10
2018-12-25T08:14:37.266Z,3.10
2018-12-25T08:17:25.826Z,3.10
2018-12-25T08:19:55.264Z,3.10
2018-12-25T08:22:24.634Z,3.10
2018-12-25T08:24:54.117Z,3.10
2018-12-25T08:27:23.599Z,3.10
2018-12-25T08:29:52.992Z,3.10
2018-12-25T08:32:22.508Z,3.30
2018-12-25T08:34:52.026Z,3.20
2018-12-25T08:37:21.568Z,3.20
2018-12-25T08:39:50.953Z,3.20
2018-12-25T08:42:20.476Z,3.20
2018-12-25T08:44:49.910Z,3.20
2018-12-25T08:47:19.497Z,3.20
2018-12-25T08:49:50.209Z,3.20
2018-12-25T08:52:19.751Z,3.30
2018-12-25T08:54:49.117Z,3.30
2018-12-25T08:57:18.571Z,3.30
2018-12-25T08:59:48.026Z,3.30
2018-12-25T09:02:17.471Z,3.30
2018-12-25T09:04:47.233Z,3.30
2018-12-25T09:07:16.713Z,3.20
2018-12-25T09:09:46.201Z,3.20
2018-12-25T09:12:15.740Z,3.20
2018-12-25T09:14:45.090Z,3.20
2018-12-25T09:17:14.913Z,3.20
2018-12-25T09:19:44.372Z,3.20
2018-12-25T09:22:13.841Z,3.20
2018-12-25T09:24:43.696Z,3.20
2018-12-25T09:27:13.093Z,3.20
2018-12-25T09:29:42.562Z,3.30
2018-12-25T09:32:12.156Z,3.40
2018-12-25T09:34:41.617Z,3.40
2018-12-25T09:37:11.137Z,3.40
2018-12-25T09:39:40.506Z,3.40
2018-12-25T09:42:10.001Z,3.30
2018-12-25T09:44:39.467Z,3.40
2018-12-25T09:47:08.899Z,3.40
2018-12-25T09:49:38.989Z,3.50
2018-12-25T09:52:12.056Z,3.50
2018-12-25T09:54:42.000Z,3.60
2018-12-25T09:57:12.482Z,3.60
2018-12-25T09:59:42.541Z,3.60
2018-12-25T10:02:12.031Z,3.60
2018-12-25T10:04:41.500Z,3.70
2018-12-25T10:07:11.044Z,3.60
2018-12-25T10:09:40.572Z,3.70
2018-12-25T10:12:09.996Z,3.70
2018-12-25T10:14:39.459Z,3.70
2018-12-25T10:17:09.359Z,3.80
2018-12-25T10:19:38.725Z,3.80
2018-12-25T10:22:08.313Z,3.90
2018-12-25T10:24:37.768Z,3.90
2018-12-25T10:27:07.278Z,3.90
2018-12-25T10:29:36.832Z,3.90
2018-12-25T10:32:06.207Z,3.90
2018-12-25T10:34:36.093Z,3.90
2018-12-25T10:37:06.194Z,3.90
2018-12-25T10:39:35.650Z,4.00
2018-12-25T10:42:05.172Z,4.00
2018-12-25T10:44:34.667Z,4.10
2018-12-25T10:47:04.099Z,4.10
2018-12-25T10:49:33.576Z,4.20
2018-12-25T10:52:11.308Z,4.30
2018-12-25T10:54:34.095Z,4.30
2018-12-25T10:57:03.581Z,4.50
2018-12-25T10:59:33.036Z,4.50
2018-12-25T11:02:02.966Z,4.60
2018-12-25T11:04:33.260Z,4.60
2018-12-25T11:07:02.719Z,4.60
2018-12-25T11:09:32.230Z,4.70
2018-12-25T11:12:02.003Z,4.60
2018-12-25T11:14:31.483Z,4.60
2018-12-25T11:17:00.957Z,4.60
2018-12-25T11:19:30.413Z,4.70
2018-12-25T11:22:00.936Z,4.80
2018-12-25T11:24:30.494Z,4.80
2018-12-25T11:26:59.983Z,4.90
2018-12-25T11:29:29.440Z,5.00
2018-12-25T11:31:58.820Z,5.00
2018-12-25T11:34:28.254Z,5.00
2018-12-25T11:36:57.723Z,5.10
2018-12-25T11:39:27.213Z,5.00
2018-12-25T11:41:57.773Z,5.00
2018-12-25T11:44:27.213Z,5.00
2018-12-25T11:46:56.687Z,5.10
2018-12-25T11:49:26.152Z,5.10
2018-12-25T11:51:55.556Z,5.20
2018-12-25T11:54:24.999Z,5.30
2018-12-25T11:56:54.482Z,5.40
2018-12-25T11:59:23.927Z,5.40
2018-12-25T12:01:53.543Z,5.40
2018-12-25T12:04:23.406Z,5.40
2018-12-25T12:06:52.875Z,5.40
2018-12-25T12:09:22.553Z,5.30
2018-12-25T12:11:52.090Z,5.30
2018-12-25T12:14:21.966Z,5.30
2018-12-25T12:16:51.432Z,5.30
2018-12-25T12:19:20.909Z,5.30
2018-12-25T12:21:50.363Z,5.40
2018-12-25T12:24:19.843Z,5.40
2018-12-25T12:26:49.249Z,5.40
2018-12-25T12:29:18.693Z,5.40
2018-12-25T12:31:48.124Z,5.40
2018-12-25T12:34:17.584Z,5.50
2018-12-25T12:36:46.985Z,5.50
2018-12-25T12:39:16.354Z,5.60
2018-12-25T12:41:45.815Z,5.70
2018-12-25T12:44:15.360Z,5.70
2018-12-25T12:46:45.219Z,5.80
2018-12-25T12:49:17.356Z,5.80
2018-12-25T12:51:46.906Z,5.80
2018-12-25T12:54:25.003Z,5.90
2018-12-25T12:56:55.100Z,5.90
2018-12-25T12:59:25.050Z,5.90
2018-12-25T13:01:54.920Z,5.90
2018-12-25T13:04:24.377Z,5.80
2018-12-25T13:06:55.732Z,5.80
2018-12-25T13:09:27.206Z,5.80
2018-12-25T13:11:57.157Z,5.90
2018-12-25T13:14:28.368Z,5.90
2018-12-25T13:17:01.477Z,5.90
2018-12-25T13:19:30.970Z,6.00
2018-12-25T13:22:00.440Z,6.10
2018-12-25T13:24:30.019Z,6.10
2018-12-25T13:26:59.555Z,6.10
2018-12-25T13:29:29.019Z,6.10
2018-12-25T13:31:58.912Z,6.20
2018-12-25T13:34:28.880Z,6.20
2018-12-25T13:36:58.525Z,6.20
2018-12-25T13:39:28.216Z,6.20
2018-12-25T13:41:59.565Z,6.30
2018-12-25T13:44:29.058Z,6.30
2018-12-25T13:46:58.476Z,6.30
2018-12-25T13:49:28.248Z,6.30
2018-12-25T13:51:57.811Z,6.30
2018-12-25T13:54:27.351Z,6.30
2018-12-25T13:56:57.116Z,6.30
2018-12-25T13:59:26.575Z,6.30
2018-12-25T14:01:56.331Z,6.30
2018-12-25T14:04:25.834Z,6.20
2018-12-25T14:06:55.275Z,6.20
2018-12-25T14:09:24.743Z,6.30
2018-12-25T14:11:56.626Z,6.20
2018-12-25T14:14:26.347Z,6.20
2018-12-25T14:16:55.818Z,6.30
2018-12-25T14:19:25.272Z,6.30
2018-12-25T14:22:13.804Z,6.30
2018-12-25T14:27:55.790Z,6.20
2018-12-25T14:30:44.402Z,6.20
2018-12-25T14:33:33.272Z,6.20
2018-12-25T14:39:12.113Z,6.20
2018-12-25T14:42:00.581Z,6.20
2018-12-25T14:44:49.081Z,6.20
2018-12-25T14:47:38.071Z,6.20
2018-12-25T14:50:26.595Z,6.10
2018-12-25T14:53:19.738Z,6.20
2018-12-25T14:56:06.395Z,6.10
2018-12-25T14:58:53.892Z,6.10
2018-12-25T15:01:44.481Z,6.10
2018-12-25T15:07:55.927Z,6.10
2018-12-25T15:17:09.560Z,6.00
2018-12-25T15:20:01.859Z,6.00
2018-12-25T15:22:51.972Z,5.90
2018-12-25T15:25:41.959Z,5.90
2018-12-25T15:28:23.379Z,5.90
2018-12-25T15:31:04.790Z,5.90
2018-12-25T15:39:27.991Z,5.90
2018-12-25T15:42:04.349Z,5.90
2018-12-25T15:44:34.705Z,5.80
2018-12-25T15:47:23.196Z,5.80
2018-12-25T15:53:07.711Z,5.80
2018-12-25T15:55:56.218Z,5.90
2018-12-25T15:58:44.778Z,5.90
2018-12-25T16:01:33.280Z,5.90
2018-12-25T16:04:21.819Z,5.80
2018-12-25T16:07:10.639Z,5.80
2018-12-25T16:09:59.339Z,5.90
2018-12-25T16:12:40.686Z,5.90
2018-12-25T16:15:21.395Z,5.90
2018-12-25T16:18:02.161Z,5.90
2018-12-25T16:20:43.033Z,5.90
2018-12-25T16:23:25.446Z,5.90
2018-12-25T16:25:55.886Z,5.90
2018-12-25T16:28:44.874Z,5.90
2018-12-25T16:31:33.362Z,5.90
2018-12-25T16:34:21.968Z,5.90
2018-12-25T16:37:10.505Z,5.90
2018-12-25T16:39:59.122Z,5.90
2018-12-25T16:45:44.027Z,5.90
2018-12-25T16:48:32.634Z,5.80
2018-12-25T17:05:44.614Z,5.60
2018-12-25T17:08:33.583Z,5.80
2018-12-25T17:11:03.356Z,5.80
2018-12-25T17:13:51.936Z,5.90
2018-12-25T17:19:35.147Z,5.90
2018-12-25T17:25:00.970Z,5.80
2018-12-25T17:27:30.733Z,5.80
2018-12-25T17:30:22.208Z,5.80
2018-12-25T17:33:11.180Z,5.90
2018-12-25T17:39:07.258Z,5.90
2018-12-25T17:50:15.596Z,5.80
2018-12-25T17:59:01.064Z,5.70
2018-12-25T18:07:30.057Z,5.60
2018-12-25T18:10:18.901Z,5.60
2018-12-25T18:13:08.200Z,5.60
2018-12-25T18:15:57.412Z,5.50
2018-12-25T18:18:46.357Z,5.50
2018-12-25T18:21:35.169Z,5.40
2018-12-25T18:27:01.702Z,5.30
2018-12-25T18:35:27.722Z,5.40
2018-12-25T18:40:58.089Z,5.20
2018-12-25T18:46:25.595Z,5.20
2018-12-25T18:54:39.249Z,5.10
2018-12-25T19:00:10.078Z,5.00
2018-12-25T19:02:51.227Z,4.90
2018-12-25T19:05:32.120Z,4.80
2018-12-25T19:08:31.615Z,4.70
2018-12-25T19:11:03.730Z,4.70
2018-12-25T19:16:38.530Z,4.70
2018-12-25T19:19:27.036Z,4.60
2018-12-25T19:22:15.836Z,4.50
2018-12-25T19:25:04.673Z,4.50
2018-12-25T19:27:53.647Z,4.50
2018-12-25T19:30:42.200Z,4.50
2018-12-25T19:36:54.494Z,4.50
2018-12-25T19:39:43.225Z,4.50
2018-12-25T19:42:12.711Z,4.40
2018-12-25T19:45:01.386Z,4.50
2018-12-25T19:47:50.352Z,4.50
2018-12-25T19:50:20.029Z,4.40
2018-12-25T19:53:08.969Z,4.30
2018-12-25T19:55:57.829Z,4.30
2018-12-25T19:58:46.381Z,4.30
2018-12-25T20:01:34.971Z,4.20
2018-12-25T20:04:42.726Z,4.10
2018-12-25T20:07:50.301Z,4.10
2018-12-25T20:10:57.866Z,4.10
2018-12-25T20:14:05.441Z,4.00
2018-12-25T20:17:13.076Z,4.10
2018-12-25T20:20:20.590Z,4.10
2018-12-25T20:23:13.830Z,4.00
2018-12-25T20:26:21.361Z,4.00
2018-12-25T20:29:41.091Z,4.00
2018-12-25T20:32:42.598Z,4.10
2018-12-25T20:36:03.821Z,4.10
2018-12-25T20:39:35.016Z,4.10
2018-12-25T20:46:43.524Z,3.90
2018-12-25T20:49:54.040Z,3.90
2018-12-25T20:53:07.058Z,3.80
2018-12-25T20:56:25.240Z,3.80
2018-12-25T20:59:32.884Z,3.70
2018-12-25T21:02:48.466Z,3.60
2018-12-25T21:05:56.051Z,3.60
2018-12-25T21:09:07.210Z,3.50
2018-12-25T21:12:13.746Z,3.40
2018-12-25T21:15:16.559Z,3.40
2018-12-25T21:18:21.730Z,3.30
2018-12-25T21:21:53.459Z,3.30
2018-12-25T21:24:58.657Z,3.20
2018-12-25T21:27:29.620Z,3.20
2018-12-25T21:30:00.268Z,3.20
2018-12-25T21:32:30.504Z,3.20
2018-12-25T21:35:16.353Z,3.20
2018-12-25T21:37:46.545Z,3.10
2018-12-25T21:40:15.949Z,3.10
2018-12-25T21:42:46.609Z,3.10
2018-12-25T21:45:16.294Z,3.10
2018-12-25T21:47:45.754Z,3.10
2018-12-25T21:50:15.720Z,3.20
2018-12-25T21:52:45.645Z,3.10
2018-12-25T21:55:18.915Z,3.10
2018-12-25T21:57:47.023Z,3.10
2018-12-25T22:00:18.388Z,3.20
2018-12-25T22:02:48.070Z,3.10
2018-12-25T22:05:17.503Z,2.90
2018-12-25T22:07:47.084Z,2.90
2018-12-25T22:10:16.488Z,2.90
2018-12-25T22:12:46.296Z,2.80
2018-12-25T22:15:15.719Z,2.90
2018-12-25T22:17:45.135Z,2.80
2018-12-25T22:20:39.152Z,2.80
2018-12-25T22:23:08.724Z,2.70
2018-12-25T22:25:38.235Z,2.60
2018-12-25T22:28:07.756Z,2.60
2018-12-25T22:30:38.055Z,2.70
2018-12-25T22:33:07.774Z,2.60
2018-12-25T22:35:37.243Z,2.70
2018-12-25T22:38:06.701Z,2.70
2018-12-25T22:40:36.065Z,2.70
2018-12-25T22:43:05.544Z,2.70
2018-12-25T22:45:34.983Z,2.70
2018-12-25T22:48:05.412Z,2.80
2018-12-25T22:50:35.335Z,2.70
2018-12-25T22:53:05.258Z,2.60
2018-12-25T22:55:36.992Z,2.70
2018-12-25T22:58:06.439Z,2.60
2018-12-25T23:00:36.377Z,2.60
2018-12-25T23:03:05.775Z,2.50
2018-12-25T23:05:35.166Z,2.50
2018-12-25T23:08:06.925Z,2.40
2018-12-25T23:10:36.635Z,2.40
2018-12-25T23:13:06.204Z,2.40
2018-12-25T23:15:35.652Z,2.30
2018-12-25T23:18:05.016Z,2.30
2018-12-25T23:20:34.500Z,2.30
2018-12-25T23:23:03.956Z,2.30
2018-12-25T23:25:33.413Z,2.30
2018-12-25T23:28:02.782Z,2.40
2018-12-25T23:30:32.332Z,2.30
2018-12-25T23:33:01.883Z,2.40
2018-12-25T23:35:31.263Z,2.40
2018-12-25T23:38:01.154Z,2.40
2018-12-25T23:40:30.630Z,2.50
2018-12-25T23:43:00.087Z,2.40
2018-12-25T23:45:29.819Z,2.30
2018-12-25T23:47:59.286Z,2.30
2018-12-25T23:50:28.768Z,2.20
2018-12-25T23:52:58.270Z,2.20
2018-12-25T23:55:27.907Z,2.20
2018-12-25T23:57:57.361Z,2.20
